Time;durP1;ratioP1;P1;durP2;ratioP2;P2;SDS_P1;SDS_P2;PMS_P1;PMS_P2;Temp;Humidity;BMP_temperature;BMP_pressure;BME280_temperature;BME280_humidity;BME280_pressure;Samples;Min_cycle;Max_cycle;Signal;HPM_P1;HPM_P2
2021/09/04 00:02:21;;;;;;;15.85;11.45;;;10.30;99.90;;;;;;5058371;28;20139;-91
2021/09/04 00:04:48;;;;;;;16.80;11.23;;;10.10;99.90;;;;;;5057440;28;20497;-89
2021/09/04 00:07:15;;;;;;;14.68;11.15;;;10.10;99.90;;;;;;5057580;28;20131;-89
2021/09/04 00:09:41;;;;;;;12.52;10.65;;;10.00;99.90;;;;;;5057753;28;20131;-90
2021/09/04 00:12:09;;;;;;;12.15;10.70;;;10.00;99.90;;;;;;5057817;28;20048;-90
2021/09/04 00:14:35;;;;;;;15.85;11.38;;;10.00;99.90;;;;;;5057426;28;20507;-90
2021/09/04 00:17:03;;;;;;;13.95;10.43;;;10.00;99.90;;;;;;5057491;28;20114;-90
2021/09/04 00:19:30;;;;;;;18.15;10.50;;;10.10;99.90;;;;;;5057731;28;20412;-90
2021/09/04 00:21:56;;;;;;;14.65;11.20;;;10.10;99.90;;;;;;5075231;28;20048;-90
2021/09/04 00:24:23;;;;;;;15.80;11.18;;;10.00;99.90;;;;;;5057139;28;20076;-90
2021/09/04 00:26:50;;;;;;;15.85;11.48;;;10.10;99.90;;;;;;5057470;28;20059;-90
2021/09/04 00:29:17;;;;;;;16.13;12.13;;;10.00;99.90;;;;;;5057368;28;20106;-90
2021/09/04 00:31:44;;;;;;;13.65;11.10;;;10.00;99.90;;;;;;5057567;28;20405;-90
2021/09/04 00:34:11;;;;;;;16.67;12.18;;;9.90;99.90;;;;;;5057302;28;20041;-90
2021/09/04 00:36:37;;;;;;;14.60;10.68;;;9.80;99.90;;;;;;5057343;28;20084;-90
2021/09/04 00:39:04;;;;;;;16.63;12.68;;;9.80;99.90;;;;;;5074570;28;20052;-90
2021/09/04 00:41:34;;;;;;;18.75;11.45;;;9.70;99.90;;;;;;5057407;28;20052;-90
2021/09/04 00:44:03;;;;;;;18.73;12.93;;;9.70;99.90;;;;;;5057156;28;20044;-90
2021/09/04 00:46:30;;;;;;;13.30;10.93;;;9.80;99.90;;;;;;5074634;28;20048;-90
2021/09/04 00:48:58;;;;;;;12.27;10.90;;;9.80;99.90;;;;;;5074445;28;20100;-90
2021/09/04 00:51:25;;;;;;;17.30;11.38;;;9.90;99.90;;;;;;5056962;28;20412;-90
2021/09/04 00:53:52;;;;;;;12.50;10.90;;;9.90;99.90;;;;;;5057214;28;20045;-90
2021/09/04 00:56:18;;;;;;;13.48;10.50;;;9.90;99.90;;;;;;5056922;28;20086;-90
2021/09/04 00:58:45;;;;;;;13.63;10.10;;;10.00;99.90;;;;;;5056914;28;20404;-90
2021/09/04 01:01:12;;;;;;;11.27;9.65;;;9.80;99.90;;;;;;5056235;28;20051;-90
2021/09/04 01:03:39;;;;;;;14.48;10.35;;;9.80;99.90;;;;;;5056717;28;20112;-90
2021/09/04 01:06:06;;;;;;;12.93;10.68;;;9.70;99.90;;;;;;5056916;28;20048;-90
2021/09/04 01:08:33;;;;;;;13.52;10.90;;;9.60;99.90;;;;;;5057026;28;20059;-90
2021/09/04 01:10:59;;;;;;;13.35;10.70;;;9.50;99.90;;;;;;5056908;28;20060;-90
2021/09/04 01:13:26;;;;;;;16.00;10.55;;;9.60;99.90;;;;;;5056752;28;20511;-90
2021/09/04 01:15:53;;;;;;;11.98;9.85;;;9.50;99.90;;;;;;5056836;28;20108;-90
2021/09/04 01:18:21;;;;;;;14.32;9.65;;;9.50;99.90;;;;;;5056779;28;20053;-90
2021/09/04 01:20:48;;;;;;;12.63;9.50;;;9.50;99.90;;;;;;5056707;28;20052;-90
2021/09/04 01:23:15;;;;;;;12.75;10.38;;;9.50;99.90;;;;;;5056622;28;20148;-90
2021/09/04 01:25:42;;;;;;;15.55;10.80;;;9.50;99.90;;;;;;5056693;28;20122;-91
2021/09/04 01:28:08;;;;;;;10.63;9.45;;;9.60;99.90;;;;;;5056565;28;20059;-91
2021/09/04 01:30:35;;;;;;;12.35;10.45;;;9.60;99.90;;;;;;5056704;28;20127;-90
2021/09/04 01:33:02;;;;;;;12.73;10.73;;;9.50;99.90;;;;;;5056673;28;20044;-90
2021/09/04 01:35:29;;;;;;;14.15;10.32;;;9.40;99.90;;;;;;5056387;28;20083;-90
2021/09/04 01:37:56;;;;;;;23.17;12.38;;;9.40;99.90;;;;;;5056344;28;20056;-90
2021/09/04 01:40:23;;;;;;;12.95;9.85;;;9.40;99.90;;;;;;5056557;28;20098;-90
2021/09/04 01:42:50;;;;;;;13.00;10.45;;;9.40;99.90;;;;;;5056402;28;20058;-90
2021/09/04 01:45:17;;;;;;;14.95;10.95;;;9.30;99.90;;;;;;5055758;28;20048;-91
2021/09/04 01:47:44;;;;;;;14.98;11.73;;;9.40;99.90;;;;;;5056124;28;20044;-91
2021/09/04 01:50:13;;;;;;;14.60;11.05;;;9.40;99.90;;;;;;5056220;28;20066;-90
2021/09/04 01:52:42;;;;;;;15.07;10.70;;;9.40;99.90;;;;;;5056064;28;20412;-91
2021/09/04 01:55:12;;;;;;;11.52;9.63;;;9.40;99.90;;;;;;5055843;28;20057;-90
2021/09/04 01:57:39;;;;;;;14.88;10.10;;;9.40;99.90;;;;;;5056100;28;20139;-90
2021/09/04 02:00:09;;;;;;;14.52;10.85;;;9.30;99.90;;;;;;5055928;28;20048;-90
2021/09/04 02:02:35;;;;;;;12.32;9.77;;;9.30;99.90;;;;;;5055678;28;20044;-90
2021/09/04 02:05:04;;;;;;;18.30;10.70;;;9.30;99.90;;;;;;5055526;28;20048;-90
2021/09/04 02:07:32;;;;;;;13.43;10.18;;;9.30;99.90;;;;;;5056017;28;20044;-90
2021/09/04 02:10:01;;;;;;;13.05;9.68;;;9.20;99.90;;;;;;5056079;28;20126;-90
2021/09/04 02:12:27;;;;;;;18.17;12.50;;;9.10;99.90;;;;;;5055453;28;20235;-91
2021/09/04 02:14:54;;;;;;;16.70;10.40;;;9.00;99.90;;;;;;5055771;28;20056;-90
2021/09/04 02:17:21;;;;;;;16.35;11.00;;;8.90;99.90;;;;;;5056109;28;20112;-91
2021/09/04 02:19:47;;;;;;;14.38;11.07;;;8.90;99.90;;;;;;5055957;28;20128;-91
2021/09/04 02:22:14;;;;;;;18.00;12.75;;;8.80;99.90;;;;;;5056065;28;20055;-91
2021/09/04 02:24:41;;;;;;;19.05;11.73;;;8.80;99.90;;;;;;5055479;28;20136;-91
2021/09/04 02:27:08;;;;;;;20.67;12.23;;;8.80;99.90;;;;;;5055590;28;20404;-91
2021/09/04 02:29:35;;;;;;;14.18;12.00;;;8.80;99.90;;;;;;5055524;28;20056;-91
2021/09/04 02:32:02;;;;;;;19.33;12.27;;;8.80;99.90;;;;;;5055595;28;20044;-90
2021/09/04 02:34:28;;;;;;;13.90;11.55;;;8.70;99.90;;;;;;5055201;28;20489;-90
2021/09/04 02:36:55;;;;;;;17.77;12.07;;;8.70;99.90;;;;;;5055622;28;20052;-90
2021/09/04 02:39:22;;;;;;;14.30;11.73;;;8.70;99.90;;;;;;5055609;28;20055;-91
2021/09/04 02:41:49;;;;;;;15.95;11.63;;;8.70;99.90;;;;;;5055494;28;20382;-91
2021/09/04 02:44:15;;;;;;;17.33;11.52;;;8.80;99.90;;;;;;5055629;28;20052;-91
2021/09/04 02:46:42;;;;;;;17.00;11.30;;;8.90;99.90;;;;;;5055490;28;20408;-91
2021/09/04 02:49:09;;;;;;;19.83;11.70;;;9.00;99.90;;;;;;5055456;28;20072;-91
2021/09/04 02:51:37;;;;;;;20.40;11.45;;;8.90;99.90;;;;;;5055730;28;20108;-91
2021/09/04 02:54:04;;;;;;;14.57;11.68;;;8.80;99.90;;;;;;5055414;28;20413;-91
2021/09/04 02:56:34;;;;;;;15.25;11.68;;;8.70;99.90;;;;;;5056044;28;20443;-91
2021/09/04 02:59:01;;;;;;;14.90;10.98;;;8.70;99.90;;;;;;5055518;28;20044;-91
2021/09/04 03:01:27;;;;;;;14.70;11.85;;;8.80;99.90;;;;;;5055673;28;20057;-90
2021/09/04 03:03:54;;;;;;;15.50;11.48;;;8.90;99.90;;;;;;5055433;28;20056;-91
2021/09/04 03:06:21;;;;;;;14.32;9.73;;;9.00;99.90;;;;;;5055661;28;20056;-91
2021/09/04 03:08:50;;;;;;;13.02;10.90;;;9.00;99.90;;;;;;5055324;28;20059;-91
2021/09/04 03:11:16;;;;;;;15.75;10.55;;;8.80;99.90;;;;;;5055333;28;20078;-90
2021/09/04 03:13:43;;;;;;;14.00;11.10;;;8.80;99.90;;;;;;5055578;28;20055;-91
2021/09/04 03:16:10;;;;;;;12.57;9.75;;;8.80;99.90;;;;;;5055090;28;20056;-91
2021/09/04 03:18:37;;;;;;;12.68;10.07;;;8.80;99.90;;;;;;5055266;28;20044;-90
2021/09/04 03:21:04;;;;;;;12.82;9.65;;;8.70;99.90;;;;;;5055099;28;20564;-91
2021/09/04 03:23:30;;;;;;;13.65;10.88;;;8.60;99.90;;;;;;5055120;28;20053;-91
2021/09/04 03:25:57;;;;;;;15.82;11.45;;;8.50;99.90;;;;;;5057655;28;20058;-91
2021/09/04 03:28:24;;;;;;;13.02;11.48;;;8.50;99.90;;;;;;5058783;28;20058;-91
2021/09/04 03:30:51;;;;;;;15.95;11.68;;;8.40;99.90;;;;;;5058587;28;20131;-91
2021/09/04 03:33:17;;;;;;;20.88;15.55;;;8.40;99.90;;;;;;5058694;28;20404;-91
2021/09/04 03:35:44;;;;;;;18.98;13.10;;;8.40;99.90;;;;;;5058514;28;20052;-91
2021/09/04 03:38:11;;;;;;;17.30;12.38;;;8.50;99.90;;;;;;5058608;28;20045;-90
2021/09/04 03:40:38;;;;;;;13.90;11.85;;;8.50;99.90;;;;;;5058695;28;20562;-91
2021/09/04 03:43:04;;;;;;;13.82;10.90;;;8.50;99.90;;;;;;5058692;28;20132;-91
2021/09/04 03:45:31;;;;;;;17.23;11.35;;;8.50;99.90;;;;;;5058189;28;20052;-90
2021/09/04 03:47:58;;;;;;;13.52;11.27;;;8.50;99.90;;;;;;5058284;28;20067;-91
2021/09/04 03:50:24;;;;;;;12.80;10.50;;;8.50;99.90;;;;;;5058613;28;20078;-91
2021/09/04 03:52:51;;;;;;;16.17;12.55;;;8.50;99.90;;;;;;5058281;28;20058;-91
2021/09/04 03:55:18;;;;;;;20.50;12.77;;;8.40;99.90;;;;;;5058206;28;20500;-91
2021/09/04 03:57:45;;;;;;;19.80;11.70;;;8.30;99.90;;;;;;5058247;28;20059;-91
2021/09/04 04:00:12;;;;;;;12.75;11.13;;;8.30;99.90;;;;;;5058238;28;20059;-91
2021/09/04 04:02:40;;;;;;;12.25;10.45;;;8.20;99.90;;;;;;5058097;28;20059;-91
2021/09/04 04:05:07;;;;;;;15.68;11.15;;;8.20;99.90;;;;;;5057726;28;20067;-91
2021/09/04 04:07:35;;;;;;;13.02;10.68;;;8.20;99.90;;;;;;5058361;28;20051;-91
2021/09/04 04:10:02;;;;;;;15.13;10.90;;;8.20;99.90;;;;;;5058020;28;20044;-91
2021/09/04 04:12:29;;;;;;;16.55;10.73;;;8.20;99.90;;;;;;5057929;28;20048;-91
2021/09/04 04:14:56;;;;;;;13.38;11.52;;;8.20;99.90;;;;;;5057587;28;20409;-91
2021/09/04 04:17:22;;;;;;;12.88;11.25;;;8.20;99.90;;;;;;5057933;28;20044;-91
2021/09/04 04:19:49;;;;;;;22.45;12.20;;;8.20;99.90;;;;;;5057924;28;20060;-91
2021/09/04 04:22:19;;;;;;;17.13;12.20;;;8.20;99.90;;;;;;5058302;28;20052;-91
2021/09/04 04:24:46;;;;;;;14.93;11.57;;;8.20;99.90;;;;;;5057332;28;20048;-91
2021/09/04 04:27:13;;;;;;;19.65;13.23;;;8.10;99.90;;;;;;5057543;28;20074;-91
2021/09/04 04:29:39;;;;;;;16.13;12.10;;;8.00;99.90;;;;;;5057609;28;20057;-91
2021/09/04 04:32:06;;;;;;;13.02;11.07;;;8.00;99.90;;;;;;5057299;28;20055;-91
2021/09/04 04:34:33;;;;;;;18.38;11.20;;;8.10;99.90;;;;;;5057519;28;20041;-89
2021/09/04 04:37:00;;;;;;;13.23;11.25;;;8.10;99.90;;;;;;5073997;28;20076;-90
2021/09/04 04:39:26;;;;;;;19.70;12.27;;;8.10;99.90;;;;;;5057597;28;20044;-91
2021/09/04 04:41:53;;;;;;;17.42;11.88;;;8.10;99.90;;;;;;5057337;28;20143;-91
2021/09/04 04:44:20;;;;;;;18.75;11.95;;;8.10;99.90;;;;;;5057400;28;20045;-91
2021/09/04 04:46:47;;;;;;;14.25;10.80;;;8.10;99.90;;;;;;5057028;28;20138;-91
2021/09/04 04:49:13;;;;;;;17.75;11.98;;;8.10;99.90;;;;;;5057253;28;20099;-91
2021/09/04 04:51:40;;;;;;;16.85;12.73;;;8.10;99.90;;;;;;5057501;28;20082;-91
2021/09/04 04:54:07;;;;;;;15.20;11.98;;;8.10;99.90;;;;;;5056940;28;20040;-91
2021/09/04 04:56:33;;;;;;;18.90;13.50;;;8.20;99.90;;;;;;5057346;28;20045;-91
2021/09/04 04:59:00;;;;;;;19.77;13.73;;;8.20;99.90;;;;;;5057087;28;20511;-91
2021/09/04 05:01:27;;;;;;;16.98;13.30;;;8.30;99.90;;;;;;5057229;28;20059;-91
2021/09/04 05:03:54;;;;;;;17.23;13.02;;;8.30;99.90;;;;;;5057178;28;20094;-91
2021/09/04 05:06:21;;;;;;;19.00;14.32;;;8.40;99.90;;;;;;5056576;28;20049;-92
2021/09/04 05:08:48;;;;;;;23.88;16.77;;;8.40;99.90;;;;;;5056744;28;20067;-91
2021/09/04 05:11:14;;;;;;;18.10;14.27;;;8.50;99.90;;;;;;5056933;28;20059;-92
2021/09/04 05:13:41;;;;;;;17.85;14.18;;;8.50;99.90;;;;;;5056922;28;20135;-91
2021/09/04 05:16:08;;;;;;;18.63;13.23;;;8.60;99.90;;;;;;5056575;28;20465;-91
2021/09/04 05:18:34;;;;;;;18.00;13.65;;;8.70;99.90;;;;;;5056745;28;20088;-91
2021/09/04 05:21:01;;;;;;;18.70;13.77;;;8.70;99.90;;;;;;5056699;28;20131;-92
2021/09/04 05:23:30;;;;;;;23.25;16.60;;;8.80;99.90;;;;;;5056730;28;20048;-92
2021/09/04 05:25:56;;;;;;;19.75;15.52;;;8.90;99.90;;;;;;5056223;28;20485;-91
2021/09/04 05:28:23;;;;;;;22.67;15.52;;;8.90;99.90;;;;;;5056484;28;20416;-92
2021/09/04 05:30:50;;;;;;;24.75;17.20;;;8.90;99.90;;;;;;5056056;28;20048;-92
2021/09/04 05:33:17;;;;;;;26.00;17.13;;;8.90;99.90;;;;;;5056065;28;20049;-92
2021/09/04 05:35:44;;;;;;;23.15;17.63;;;9.00;99.90;;;;;;5056080;28;20048;-92
2021/09/04 05:38:10;;;;;;;29.50;21.77;;;9.00;99.90;;;;;;5056037;28;20045;-91
2021/09/04 05:40:37;;;;;;;53.28;31.75;;;9.20;99.90;;;;;;5055843;28;20071;-92
2021/09/04 05:43:04;;;;;;;51.80;33.58;;;9.50;99.90;;;;;;5055948;28;20501;-92
2021/09/04 05:45:32;;;;;;;64.35;35.75;;;9.80;99.90;;;;;;5055838;28;20481;-91
2021/09/04 05:47:59;;;;;;;40.95;31.20;;;10.40;99.90;;;;;;5055825;28;20048;-91
2021/09/04 05:50:26;;;;;;;46.70;32.30;;;11.10;99.90;;;;;;5056013;28;20135;-89
2021/09/04 05:52:52;;;;;;;33.30;26.55;;;11.50;99.90;;;;;;5055855;28;20135;-91
2021/09/04 05:55:19;;;;;;;26.60;21.02;;;12.00;99.90;;;;;;5055894;28;20076;-91
2021/09/04 05:57:46;;;;;;;19.02;15.07;;;12.50;99.90;;;;;;5055696;28;20052;-92
2021/09/04 06:00:13;;;;;;;23.10;14.60;;;12.90;99.90;;;;;;5056104;28;20109;-92
2021/09/04 06:02:41;;;;;;;12.35;8.63;;;13.00;99.90;;;;;;5055662;28;20091;-92
2021/09/04 06:05:08;;;;;;;10.93;7.70;;;12.70;99.90;;;;;;5055711;28;20048;-92
2021/09/04 06:07:35;;;;;;;11.25;6.55;;;12.80;99.90;;;;;;5055923;28;20052;-92
2021/09/04 06:10:02;;;;;;;8.30;6.15;;;13.00;99.90;;;;;;5056114;28;20404;-92
2021/09/04 06:12:29;;;;;;;10.07;5.78;;;13.30;99.90;;;;;;5056184;28;20045;-93
2021/09/04 06:14:56;;;;;;;8.68;5.78;;;13.70;99.90;;;;;;5055198;28;20048;-91
2021/09/04 06:17:22;;;;;;;28.63;6.30;;;13.60;99.90;;;;;;5056035;28;20153;-92
2021/09/04 06:19:49;;;;;;;27.05;6.85;;;14.10;99.90;;;;;;5056026;28;20044;-89
2021/09/04 06:22:16;;;;;;;34.60;6.93;;;14.10;99.90;;;;;;5055725;28;20052;-89
2021/09/04 06:24:42;;;;;;;18.00;6.80;;;13.90;99.90;;;;;;5055448;28;20055;-89
2021/09/04 06:27:09;;;;;;;13.60;6.50;;;14.00;99.90;;;;;;5057317;28;20156;-89
2021/09/04 06:29:36;;;;;;;31.00;6.50;;;14.30;99.90;;;;;;5055457;28;20080;-89
2021/09/04 06:32:05;;;;;;;12.88;5.45;;;14.10;99.90;;;;;;5055013;28;20047;-91
2021/09/04 06:34:35;;;;;;;11.13;6.25;;;14.10;99.90;;;;;;5055237;28;20489;-91
2021/09/04 06:37:02;;;;;;;18.02;6.00;;;14.10;99.90;;;;;;5072572;28;20041;-91
2021/09/04 06:39:29;;;;;;;23.42;6.45;;;14.00;99.90;;;;;;5054095;28;20052;-91
2021/09/04 06:41:55;;;;;;;20.98;6.72;;;14.10;99.90;;;;;;5072735;28;20044;-91
2021/09/04 06:44:22;;;;;;;17.00;5.97;;;14.10;99.90;;;;;;5072803;28;20059;-89
2021/09/04 06:46:49;;;;;;;15.05;6.22;;;14.20;99.90;;;;;;5073114;28;20455;-89
2021/09/04 06:49:16;;;;;;;35.08;7.97;;;14.10;99.90;;;;;;5055648;28;20454;-88
2021/09/04 06:51:43;;;;;;;25.20;7.90;;;14.20;99.90;;;;;;5055640;28;20055;-88
2021/09/04 06:54:09;;;;;;;29.90;8.25;;;14.30;99.90;;;;;;5072762;28;20055;-88
2021/09/04 06:56:36;;;;;;;28.05;7.10;;;14.30;99.90;;;;;;5055012;28;20045;-90
2021/09/04 06:59:03;;;;;;;21.92;7.97;;;14.40;99.90;;;;;;5055629;28;20048;-88
2021/09/04 07:01:30;;;;;;;39.38;9.05;;;14.60;99.90;;;;;;5059598;28;20431;-89
2021/09/04 07:03:57;;;;;;;27.60;7.38;;;14.70;99.90;;;;;;5059103;28;20067;-89
2021/09/04 07:06:24;;;;;;;23.85;7.82;;;14.90;99.90;;;;;;5059308;28;20048;-88
2021/09/04 07:08:50;;;;;;;31.70;9.38;;;15.20;99.90;;;;;;5058899;28;20106;-89
2021/09/04 07:11:17;;;;;;;44.42;8.82;;;15.60;99.90;;;;;;5059322;28;20074;-89
2021/09/04 07:13:44;;;;;;;48.05;10.55;;;15.90;99.90;;;;;;5059266;28;20119;-89
2021/09/04 07:16:10;;;;;;;46.00;10.13;;;16.00;99.90;;;;;;5059283;28;20142;-89
2021/09/04 07:18:37;;;;;;;33.30;9.10;;;16.20;99.90;;;;;;5061714;28;20132;-89
2021/09/04 07:21:04;;;;;;;45.53;10.00;;;16.40;99.90;;;;;;5079241;28;20074;-89
2021/09/04 07:23:30;;;;;;;45.17;10.32;;;16.50;99.90;;;;;;5062803;28;20076;-89
2021/09/04 07:25:57;;;;;;;47.67;10.18;;;16.60;99.90;;;;;;5058296;28;20049;-88
2021/09/04 07:28:24;;;;;;;40.35;10.18;;;16.70;99.90;;;;;;5058829;28;20083;-89
2021/09/04 07:30:51;;;;;;;35.03;10.48;;;16.90;99.90;;;;;;5059858;28;20115;-88
2021/09/04 07:33:17;;;;;;;49.33;10.63;;;17.10;99.90;;;;;;5061301;28;20124;-88
2021/09/04 07:35:44;;;;;;;46.22;11.30;;;17.30;99.90;;;;;;5059173;28;20060;-88
2021/09/04 07:38:12;;;;;;;40.58;11.60;;;17.70;99.90;;;;;;5058608;28;20110;-89
2021/09/04 07:40:38;;;;;;;41.55;10.65;;;18.10;99.90;;;;;;5058656;28;20048;-88
2021/09/04 07:43:08;;;;;;;33.15;9.80;;;18.50;99.90;;;;;;5058567;28;20398;-88
2021/09/04 07:45:36;;;;;;;29.48;9.25;;;19.40;99.90;;;;;;5058202;28;20079;-89
2021/09/04 07:48:05;;;;;;;33.50;9.68;;;20.30;99.90;;;;;;5058316;28;20090;-89
2021/09/04 07:50:33;;;;;;;29.70;9.43;;;20.70;99.90;;;;;;5058175;28;20044;-88
2021/09/04 07:53:00;;;;;;;44.88;10.73;;;21.00;99.90;;;;;;5058304;28;20053;-88
2021/09/04 07:55:27;;;;;;;27.42;8.98;;;21.60;99.90;;;;;;5058492;28;20131;-88
2021/09/04 07:57:53;;;;;;;18.23;6.80;;;22.80;99.90;;;;;;5058117;28;20075;-89
2021/09/04 08:00:21;;;;;;;16.48;6.72;;;24.80;99.90;;;;;;5075231;28;20052;-89
2021/09/04 08:02:48;;;;;;;12.77;6.03;;;26.50;99.90;;;;;;5057650;28;20044;-88
2021/09/04 08:05:15;;;;;;;19.52;6.75;;;27.20;96.90;;;;;;5074082;28;20063;-88
2021/09/04 08:07:42;;;;;;;8.75;5.90;;;28.80;92.10;;;;;;5059349;28;20118;-89
2021/09/04 08:10:09;;;;;;;11.07;4.90;;;29.40;85.20;;;;;;5057870;28;20048;-86
2021/09/04 08:12:36;;;;;;;7.82;5.20;;;29.60;86.00;;;;;;5058147;28;20572;-88
2021/09/04 08:15:03;;;;;;;9.35;5.68;;;30.20;80.70;;;;;;5058854;28;20051;-86
2021/09/04 08:17:30;;;;;;;7.53;4.90;;;30.10;79.20;;;;;;5058484;28;20048;-87
2021/09/04 08:19:57;;;;;;;10.57;5.40;;;30.20;79.20;;;;;;5075703;28;20557;-86
2021/09/04 08:22:24;;;;;;;11.13;5.28;;;30.90;77.70;;;;;;5058590;28;20131;-87
2021/09/04 08:24:51;;;;;;;8.85;5.32;;;30.20;74.30;;;;;;5057875;28;20054;-87
2021/09/04 08:27:17;;;;;;;7.47;5.03;;;30.10;76.00;;;;;;5075788;28;20044;-87
2021/09/04 08:29:44;;;;;;;5.35;4.53;;;30.50;76.50;;;;;;5054352;28;20049;-88
2021/09/04 08:32:11;;;;;;;9.45;4.85;;;30.60;77.80;;;;;;5055047;28;20088;-87
2021/09/04 08:34:37;;;;;;;10.02;5.15;;;31.40;74.30;;;;;;5053916;28;20496;-87
2021/09/04 08:37:04;;;;;;;5.70;5.00;;;30.90;73.40;;;;;;5053895;28;20053;-88
2021/09/04 08:39:31;;;;;;;8.57;5.70;;;31.40;72.90;;;;;;5053744;28;20052;-88
2021/09/04 08:41:58;;;;;;;11.13;5.72;;;31.10;70.20;;;;;;5053962;28;20409;-87
2021/09/04 08:44:25;;;;;;;6.97;5.55;;;31.70;70.90;;;;;;5053481;28;20045;-87
2021/09/04 08:46:52;;;;;;;6.18;5.28;;;33.00;69.40;;;;;;5053482;28;20048;-88
2021/09/04 08:49:19;;;;;;;6.93;5.53;;;32.80;69.80;;;;;;5053598;28;20574;-87
2021/09/04 08:51:46;;;;;;;6.30;5.65;;;32.30;67.80;;;;;;5053858;28;20470;-86
2021/09/04 08:54:13;;;;;;;6.72;5.30;;;33.20;67.00;;;;;;5054919;28;20045;-89
2021/09/04 08:56:41;;;;;;;9.30;6.13;;;33.50;66.10;;;;;;5054905;28;20045;-89
2021/09/04 08:59:08;;;;;;;8.88;5.95;;;34.20;64.60;;;;;;5054810;28;20048;-86
2021/09/04 09:01:44;;;;;;;9.85;5.75;;;34.10;63.90;;;;;;5054615;28;20049;-87
2021/09/04 09:04:21;;;;;;;8.07;6.03;;;34.00;62.50;;;;;;5053638;28;20081;-87
2021/09/04 09:06:48;;;;;;;8.48;6.10;;;34.10;64.10;;;;;;5053008;28;20049;-87
2021/09/04 09:09:22;;;;;;;6.13;5.50;;;34.20;62.10;;;;;;5055198;28;20048;-86
2021/09/04 09:11:54;;;;;;;12.30;5.95;;;34.60;61.00;;;;;;5054546;28;20045;-87
2021/09/04 09:14:23;;;;;;;7.38;6.20;;;33.60;62.20;;;;;;5053908;28;20132;-89
2021/09/04 09:16:52;;;;;;;7.18;5.95;;;34.30;62.90;;;;;;5057637;28;20113;-85
2021/09/04 09:19:27;;;;;;;6.38;5.78;;;35.10;62.50;;;;;;5068986;28;20060;-86
2021/09/04 09:21:58;;;;;;;8.40;6.20;;;34.90;62.10;;;;;;5053531;28;20153;-86
2021/09/04 09:24:27;;;;;;;8.48;6.68;;;34.20;61.80;;;;;;5051768;28;20127;-85
2021/09/04 09:27:00;;;;;;;8.20;6.50;;;33.50;63.70;;;;;;5051310;28;20057;-86
2021/09/04 09:29:32;;;;;;;9.63;6.60;;;34.40;64.00;;;;;;5051454;28;20168;-84
2021/09/04 09:32:02;;;;;;;8.52;6.57;;;35.40;62.90;;;;;;5051936;28;20048;-87
2021/09/04 09:34:29;;;;;;;13.20;7.65;;;34.70;60.10;;;;;;5052985;28;20053;-87
2021/09/04 09:36:59;;;;;;;10.77;7.63;;;34.10;62.80;;;;;;5052096;28;20060;-87
2021/09/04 09:39:27;;;;;;;9.48;5.90;;;34.20;63.60;;;;;;5052800;28;20405;-86
2021/09/04 09:41:56;;;;;;;10.73;7.25;;;35.60;63.10;;;;;;5053043;28;20049;-89
2021/09/04 09:44:29;;;;;;;10.02;6.68;;;35.40;60.10;;;;;;5052854;28;20474;-87
2021/09/04 09:46:57;;;;;;;7.40;6.60;;;36.10;58.80;;;;;;5053507;28;20404;-85
2021/09/04 09:49:32;;;;;;;10.55;6.43;;;35.70;60.70;;;;;;5052532;28;20063;-86
2021/09/04 09:52:04;;;;;;;10.20;8.10;;;36.70;58.90;;;;;;5053002;28;20059;-89
2021/09/04 09:54:31;;;;;;;7.63;5.85;;;36.70;58.30;;;;;;5052319;28;20140;-84
2021/09/04 09:57:01;;;;;;;12.15;7.13;;;37.40;57.90;;;;;;5052166;28;20063;-87
2021/09/04 09:59:29;;;;;;;10.27;7.13;;;37.60;57.30;;;;;;5052546;28;20051;-85
2021/09/04 10:01:57;;;;;;;9.52;7.25;;;36.90;57.30;;;;;;5052456;28;20433;-87
2021/09/04 10:04:31;;;;;;;10.45;7.03;;;37.00;58.30;;;;;;5052590;28;20083;-89
2021/09/04 10:06:57;;;;;;;7.90;6.97;;;37.40;57.20;;;;;;5051764;28;20140;-86
2021/09/04 10:09:24;;;;;;;8.48;7.10;;;38.00;56.20;;;;;;5052469;28;20045;-85
2021/09/04 10:11:52;;;;;;;12.38;8.02;;;38.20;55.30;;;;;;5052385;28;20061;-86
2021/09/04 10:14:19;;;;;;;9.85;7.68;;;37.40;55.60;;;;;;5052579;28;20055;-87
2021/09/04 10:16:51;;;;;;;11.98;8.20;;;37.90;54.90;;;;;;5052096;28;20095;-86
2021/09/04 10:19:21;;;;;;;15.13;7.35;;;38.20;54.40;;;;;;5052414;28;20121;-85
2021/09/04 10:21:48;;;;;;;10.90;7.97;;;38.00;55.70;;;;;;5052329;28;20478;-85
2021/09/04 10:24:14;;;;;;;8.75;7.50;;;38.20;55.70;;;;;;5052099;28;20049;-88
2021/09/04 10:26:42;;;;;;;10.15;7.80;;;38.50;54.50;;;;;;5051819;28;20500;-86
2021/09/04 10:29:12;;;;;;;12.93;8.60;;;38.00;55.40;;;;;;5052024;28;20055;-86
2021/09/04 10:31:52;;;;;;;11.85;7.47;;;38.20;55.50;;;;;;5051934;28;20049;-89
2021/09/04 10:34:30;;;;;;;12.68;8.95;;;37.30;55.10;;;;;;5054824;28;20047;-89
2021/09/04 10:37:02;;;;;;;9.93;7.85;;;37.00;56.00;;;;;;5073357;28;20063;-86
2021/09/04 10:39:46;;;;;;;12.18;7.75;;;37.30;56.80;;;;;;5066018;28;20139;-86
2021/09/04 10:42:28;;;;;;;10.13;7.93;;;37.00;56.10;;;;;;5056845;28;20504;-85
2021/09/04 10:45:09;;;;;;;14.15;8.88;;;37.90;55.80;;;;;;5056421;28;20144;-86
2021/09/04 10:47:47;;;;;;;14.95;10.65;;;37.20;54.50;;;;;;5056763;28;20416;-85
2021/09/04 10:50:24;;;;;;;12.90;8.15;;;36.30;55.90;;;;;;5056736;28;20176;-86
2021/09/04 10:52:56;;;;;;;9.57;8.65;;;36.10;57.20;;;;;;5055927;28;20051;-85
2021/09/04 10:55:27;;;;;;;8.93;7.57;;;34.70;58.30;;;;;;5055761;28;20053;-86
2021/09/04 10:58:03;;;;;;;10.00;7.85;;;36.00;58.30;;;;;;5056245;28;20053;-85
2021/09/04 11:00:42;;;;;;;10.93;7.90;;;36.90;55.10;;;;;;5055962;28;20053;-85
2021/09/04 11:03:14;;;;;;;12.85;9.48;;;36.70;56.60;;;;;;5055759;28;20063;-88
2021/09/04 11:05:56;;;;;;;9.52;7.50;;;36.20;57.10;;;;;;5056535;28;20069;-88
2021/09/04 11:08:29;;;;;;;11.82;9.30;;;36.60;57.50;;;;;;5055699;28;20123;-86
2021/09/04 11:11:16;;;;;;;14.82;9.40;;;35.20;57.30;;;;;;5055572;28;20057;-86
2021/09/04 11:13:53;;;;;;;10.00;8.00;;;35.60;57.30;;;;;;5055854;28;20055;-88
2021/09/04 11:16:35;;;;;;;9.38;8.07;;;35.80;58.20;;;;;;5055436;28;20571;-88
2021/09/04 11:19:33;;;;;;;13.90;10.48;;;35.90;57.40;;;;;;5055833;28;20073;-86
2021/09/04 11:22:14;;;;;;;12.93;10.70;;;33.40;59.50;;;;;;5053352;28;20056;-88
2021/09/04 11:24:43;;;;;;;14.55;10.77;;;32.50;61.10;;;;;;5055109;28;20080;-87
2021/09/04 11:27:12;;;;;;;13.98;11.10;;;32.10;62.60;;;;;;5055003;28;20053;-89
2021/09/04 11:29:44;;;;;;;15.73;11.85;;;31.00;65.30;;;;;;5054986;28;20519;-87
2021/09/04 11:32:12;;;;;;;16.27;12.45;;;30.30;68.20;;;;;;5056241;28;20049;-87
2021/09/04 11:34:46;;;;;;;15.90;11.57;;;30.10;68.60;;;;;;5054915;28;20220;-87
2021/09/04 11:37:23;;;;;;;16.73;11.95;;;29.30;72.90;;;;;;5054903;28;20088;-87
2021/09/04 11:39:56;;;;;;;15.13;11.98;;;29.10;74.30;;;;;;5055182;28;20053;-87
2021/09/04 11:42:25;;;;;;;17.80;13.20;;;28.70;74.00;;;;;;5055336;28;20052;-87
2021/09/04 11:44:59;;;;;;;19.40;13.60;;;28.20;76.90;;;;;;5054459;28;20055;-86
2021/09/04 11:47:27;;;;;;;19.25;13.55;;;28.10;78.10;;;;;;5054914;28;20581;-86
2021/09/04 11:49:59;;;;;;;20.15;13.05;;;28.00;80.10;;;;;;5054758;28;20053;-88
2021/09/04 11:52:38;;;;;;;17.08;13.50;;;27.90;80.30;;;;;;5055214;28;20395;-87
2021/09/04 11:55:17;;;;;;;19.48;13.20;;;27.60;80.50;;;;;;5064055;28;20100;-87
2021/09/04 11:57:53;;;;;;;19.73;14.02;;;27.60;81.70;;;;;;5066964;28;20072;-87
2021/09/04 12:00:22;;;;;;;18.05;13.63;;;27.70;85.80;;;;;;5054986;28;20136;-87
2021/09/04 12:02:50;;;;;;;21.95;13.10;;;27.50;82.70;;;;;;5054707;28;20080;-88
2021/09/04 12:05:22;;;;;;;21.48;13.98;;;27.20;84.20;;;;;;5054131;28;20091;-86
2021/09/04 12:07:53;;;;;;;19.17;13.25;;;27.00;91.20;;;;;;5055628;28;20063;-87
2021/09/04 12:10:26;;;;;;;19.52;14.52;;;27.20;90.10;;;;;;5054559;28;20453;-88
2021/09/04 12:12:58;;;;;;;21.02;13.98;;;27.30;89.00;;;;;;5055351;28;20486;-85
2021/09/04 12:15:27;;;;;;;20.23;13.95;;;27.40;90.00;;;;;;5052904;28;20494;-86
2021/09/04 12:18:01;;;;;;;70.40;20.13;;;27.40;88.50;;;;;;5054201;28;20087;-92
2021/09/04 12:20:35;;;;;;;18.77;13.45;;;27.10;89.10;;;;;;5055240;28;20049;-88
2021/09/04 12:23:15;;;;;;;16.55;12.93;;;26.90;88.50;;;;;;5053862;28;20053;-87
2021/09/04 12:25:43;;;;;;;18.70;12.38;;;26.80;90.00;;;;;;5053945;28;20119;-87
2021/09/04 12:28:11;;;;;;;16.35;12.93;;;26.70;91.00;;;;;;5054805;28;20045;-87
2021/09/04 12:30:55;;;;;;;21.08;15.30;;;26.40;91.20;;;;;;5057207;28;20428;-87
2021/09/04 12:33:22;;;;;;;16.45;12.25;;;26.10;93.50;;;;;;5057732;28;20412;-87
2021/09/04 12:36:00;;;;;;;20.45;13.68;;;26.00;93.80;;;;;;5057423;28;20565;-87
2021/09/04 12:38:33;;;;;;;17.08;13.48;;;25.90;94.30;;;;;;5057520;28;20062;-89
2021/09/04 12:41:01;;;;;;;16.60;12.93;;;25.80;95.50;;;;;;5057159;28;20485;-87
2021/09/04 12:43:28;;;;;;;19.73;13.30;;;25.80;96.80;;;;;;5075454;28;20052;-89